AirNav   Air Wisconsin Up To $57,000 Bonus
 
 1624 users online  

WA12 Acme Field Airport
Acme, Washington, USA

GOING TO ACME?


FAA INFORMATION EFFECTIVE 04 NOVEMBER 2021

Location

FAA Identifier: WA12
Lat/Long: 48-42-34.4070N 122-10-39.5660W
48-42.573450N 122-10.659433W
48.7095575,-122.1776572
(estimated)
Elevation: 301 ft. / 91.7 m (surveyed)
Variation: 21E (1985)
From city: 1 mile SE of ACME, WA
Time zone: UTC -7 (UTC -8 during Standard Time)
Zip code: 98244

Airport Operations

Airport use: Private use. Permission required prior to landing
Activation date: 01/1965
Control tower: no
ARTCC: SEATTLE CENTER
FSS: SEATTLE FLIGHT SERVICE STATION
Attendance: UNATNDD
Wind indicator: yes
Segmented circle: no

Airport Communications

WX ASOS at BLI (15 nm W): PHONE 360-671-8688
WX AWOS-3 at BVS (17 nm SW): 121.125 (360-757-7767)

Nearby radio navigation aids

VOR radial/distance  VOR name  Freq  Var
HUHr112/21.3WHATCOM VORTAC113.0020E
CVVr019/35.4PENN COVE VOR/DME117.2019E

 
NDB name  Hdg/Dist  Freq  Var  ID
SKAGIT/BAY VIEW017/17.324016EBVS -... ...- ...
FRIDAY HARBOR054/35.628417EFHR ..-. .... .-.

Airport Services

Airframe service: NONE
Powerplant service: NONE

Runway Information

Runway N/S

Dimensions: 1400 x 63 ft. / 427 x 19 m
Surface: turf
RUNWAY N  RUNWAY S
Traffic pattern: rightleft
Runway end identifier lights: nono
Obstructions: fence, 2640 ft. from runway
PLINE 1/2 MILE N OF RWY.
fence

Airport Ownership and Management from official FAA records

Ownership: Privately-owned
Owner: AL REED
5456 ROTHENBUHLER RD
ACME, WA 98117
Phone 360-595-2152
Manager: AL REED
PO BOX 128
ACME, WA 98220
Phone 360-595-2152

Additional Remarks

ELECTRIC FENCE AROUND SOUTH 700 FT OF RY.
FOR CD CTC SEATTLE ARTCC AT 253-351-3694.

Instrument Procedures

There are no published instrument procedures at WA12.

Some nearby airports with instrument procedures:

KBLI - Bellingham International Airport (15 nm W)
KBVS - Skagit Regional Airport (17 nm SW)
KNUW - Whidbey Island Naval Air Station (Ault Field) (29 nm SW)
KORS - Orcas Island Airport (29 nm W)
KAWO - Arlington Municipal Airport (33 nm S)
 
Loc | Ops | Rwys | IFR | FBO | Links
Com | Nav | Svcs | Stats | Notes
Area around WA12 (Acme Field Airport)
 
Road maps at: MapQuest Bing Google
 
Aerial photo
WARNING: Photo may not be current or correct
Aerial photo of WA12 (Acme Field Airport)
Photo taken 28-Nov-2019
looking north.

Do you have a better or more recent aerial photo of Acme Field Airport that you would like to share? If so, please send us your photo.

 
Sectional chart

 
Airport distance calculator
Flying to Acme Field Airport? Find the distance to fly.

From to WA12

Sunrise and sunset
Times for 29-Nov-2021
 Local
(UTC-8)
 Zulu
(UTC)
Morning civil twilight07:0315:03
Sunrise07:3915:39
Sunset16:1500:15
Evening civil twilight16:5100:51

Current date and time
Zulu (UTC)  30-Nov-2021 00:17:26
Local (UTC-8)  29-Nov-2021 16:17:26
 
METAR
KBLI 
15nm W 
292353Z 18008KT 10SM SCT075 13/11 A3018 RMK AO2 SLP228 T01280106 10133 20117 58007
KBVS 
17nm SW 
292355Z AUTO 00000KT 7SM OVC029 14/10 A3020 RMK A01
CYXX 
20nm N 
292300Z 23004KT 15SM FEW015 SCT042 BKN210 13/11 A3019 RMK SF1SC3CI2 SLP225
KNUW 
29nm SW 
292356Z 12010KT 10SM FEW016 SCT025 SCT075 BKN180 OVC250 13/10 A3022 RMK AO2 SLP232 T01330100 10144 20128 58009 $
KORS 
29nm W 
292355Z AUTO 18008KT 10SM FEW075 12/11 A3017 RMK AO2
CWWK 
30nm NW 
292300Z AUTO 09001KT 12/10 RMK AO1 SLP228 T01240104 58008
TAF
KBLI 
15nm W 
292106Z 2921/3018 19008KT P6SM SCT014 OVC040 FM300000 17006KT P6SM OVC050 FM300900 18003KT P6SM -RA OVC050
NOTAMs
Click for the latest NOTAMs
NOTAMs are issued by the DoD/FAA and will open in a separate window not controlled by AirNav.

 

 
 

Would you like to see your business listed on this page?

 If your business provides an interesting product or service to pilots, flight crews, aircraft, or users of the Acme Field Airport, you should consider listing it here.  To start the listing process, click on the button below
 
Add a business
 

Other Pages about Acme Field Airport

Update a link
 
Copyright © AirNav, LLC. All rights reserved. Privacy Policy  Contact